Time;durP1;ratioP1;P1;durP2;ratioP2;P2;SDS_P1;SDS_P2;PMS_P1;PMS_P2;Temp;Humidity;BMP_temperature;BMP_pressure;BME280_temperature;BME280_humidity;BME280_pressure;Samples;Min_cycle;Max_cycle;Signal;HPM_P1;HPM_P2
2022/04/11 00:02:00;;;;;;;6.60;3.03;;;8.40;60.30;;;;;;5057655;28;20036;-64
2022/04/11 00:04:27;;;;;;;7.03;3.60;;;8.40;60.40;;;;;;5056433;28;20025;-64
2022/04/11 00:06:53;;;;;;;8.18;3.95;;;8.30;60.40;;;;;;5057941;28;20159;-64
2022/04/11 00:09:18;;;;;;;9.10;3.80;;;8.30;60.50;;;;;;5066229;28;20436;-64
2022/04/11 00:11:46;;;;;;;8.65;3.35;;;8.30;60.60;;;;;;5057609;28;20044;-64
2022/04/11 00:14:12;;;;;;;7.35;3.53;;;8.30;60.80;;;;;;5055449;28;20123;-64
2022/04/11 00:16:38;;;;;;;6.85;3.28;;;8.30;60.70;;;;;;5062480;28;20021;-63
2022/04/11 00:19:04;;;;;;;9.65;3.90;;;8.20;60.70;;;;;;5063512;28;20032;-64
2022/04/11 00:21:30;;;;;;;10.13;3.70;;;8.20;60.80;;;;;;5058655;28;20017;-63
2022/04/11 00:23:55;;;;;;;7.80;3.63;;;8.20;60.80;;;;;;5056715;28;20037;-64
2022/04/11 00:26:21;;;;;;;9.52;4.00;;;8.20;60.80;;;;;;5056971;28;20067;-64
2022/04/11 00:28:46;;;;;;;8.50;3.55;;;8.20;60.90;;;;;;5056716;28;20049;-64
2022/04/11 00:31:12;;;;;;;9.30;3.50;;;8.20;61.00;;;;;;5057190;28;20055;-64
2022/04/11 00:33:37;;;;;;;8.32;3.70;;;8.20;61.10;;;;;;5075405;28;20441;-64
2022/04/11 00:36:03;;;;;;;7.30;3.33;;;8.20;61.30;;;;;;5074530;28;20055;-64
2022/04/11 00:38:29;;;;;;;7.78;3.75;;;8.20;61.30;;;;;;5056636;28;20108;-64
2022/04/11 00:40:54;;;;;;;9.43;3.63;;;8.10;61.30;;;;;;5056240;28;20449;-64
2022/04/11 00:43:32;;;;;;;7.90;3.20;;;8.10;61.40;;;;;;5073465;28;20463;-64
2022/04/11 00:45:58;;;;;;;7.65;3.47;;;8.10;61.50;;;;;;5062817;28;20036;-64
2022/04/11 00:48:24;;;;;;;9.20;4.00;;;8.10;61.40;;;;;;5056670;28;20033;-64
2022/04/11 00:50:53;;;;;;;7.55;3.20;;;8.10;61.40;;;;;;5055916;28;20029;-64
2022/04/11 00:53:19;;;;;;;8.95;3.50;;;8.10;61.50;;;;;;5056412;28;20039;-64
2022/04/11 00:55:46;;;;;;;9.18;3.92;;;8.10;61.50;;;;;;5055121;28;20044;-63
2022/04/11 00:58:13;;;;;;;8.98;3.22;;;8.10;61.50;;;;;;5069358;28;20123;-64
2022/04/11 01:00:40;;;;;;;7.28;3.13;;;8.10;61.60;;;;;;5063140;28;20112;-64
2022/04/11 01:03:06;;;;;;;8.25;3.20;;;8.00;61.50;;;;;;5055126;28;20021;-64
2022/04/11 01:05:31;;;;;;;8.98;3.72;;;8.00;61.60;;;;;;5055772;28;20438;-64
2022/04/11 01:08:07;;;;;;;8.55;4.05;;;8.00;61.60;;;;;;5065092;28;20025;-64
2022/04/11 01:10:33;;;;;;;6.55;3.08;;;8.00;61.70;;;;;;5063629;28;20048;-63
2022/04/11 01:12:59;;;;;;;8.15;3.72;;;8.00;61.70;;;;;;5056553;28;20028;-64
2022/04/11 01:15:25;;;;;;;8.20;3.80;;;8.00;61.80;;;;;;5054249;28;20035;-64
2022/04/11 01:17:51;;;;;;;8.70;3.67;;;8.00;61.90;;;;;;5064054;28;20024;-64
2022/04/11 01:20:16;;;;;;;7.30;3.17;;;7.90;61.90;;;;;;5054485;28;20376;-64
2022/04/11 01:22:43;;;;;;;8.82;3.95;;;7.90;61.90;;;;;;5057081;28;20021;-63
2022/04/11 01:25:13;;;;;;;8.80;4.22;;;7.90;62.00;;;;;;5033971;28;20017;-64
2022/04/11 01:27:41;;;;;;;;;;;7.90;62.00;;;;;;5059544;28;20361;-64
2022/04/11 01:30:11;;;;;;;10.38;3.80;;;7.90;61.90;;;;;;5066536;28;19913;-64
2022/04/11 01:32:42;;;;;;;8.75;3.45;;;7.90;62.00;;;;;;5038913;28;20045;-64
2022/04/11 01:35:26;;;;;;;8.40;3.53;;;7.90;62.10;;;;;;5054261;28;20035;-64
2022/04/11 01:37:56;;;;;;;8.07;3.58;;;7.80;62.20;;;;;;5056083;28;20021;-64
2022/04/11 01:40:23;;;;;;;8.05;3.75;;;7.80;62.30;;;;;;5037157;28;20029;-64
2022/04/11 01:42:49;;;;;;;7.88;3.53;;;7.80;62.40;;;;;;5039733;28;20082;-64
2022/04/11 01:45:14;;;;;;;9.70;4.00;;;7.80;62.50;;;;;;5075021;28;20033;-64
2022/04/11 01:47:41;;;;;;;10.18;3.78;;;7.80;62.60;;;;;;5054920;28;20048;-64
2022/04/11 01:50:08;;;;;;;7.95;3.45;;;7.80;62.70;;;;;;5053946;28;20099;-64
2022/04/11 01:52:34;;;;;;;8.45;3.72;;;7.80;62.70;;;;;;5054851;28;20323;-64
2022/04/11 01:55:04;;;;;;;7.57;3.53;;;7.80;62.70;;;;;;5054436;28;20085;-64
2022/04/11 01:57:30;;;;;;;12.25;4.00;;;7.80;62.90;;;;;;5068189;28;20056;-64
2022/04/11 01:59:56;;;;;;;9.93;4.45;;;7.80;62.90;;;;;;5053568;28;20465;-64
2022/04/11 02:02:22;;;;;;;10.55;4.63;;;7.80;62.90;;;;;;5053783;28;20025;-64
2022/04/11 02:04:48;;;;;;;9.25;4.45;;;7.70;62.90;;;;;;5073088;28;20091;-64
2022/04/11 02:07:13;;;;;;;8.82;4.35;;;7.80;63.70;;;;;;5061965;28;20024;-64
2022/04/11 02:09:39;;;;;;;8.23;4.28;;;7.80;63.00;;;;;;5047723;28;20025;-64
2022/04/11 02:12:05;;;;;;;8.90;4.63;;;7.70;63.00;;;;;;5053659;28;20025;-64
2022/04/11 02:14:30;;;;;;;8.07;4.13;;;7.70;63.00;;;;;;5052030;28;20043;-64
2022/04/11 02:16:56;;;;;;;9.43;4.32;;;7.70;63.00;;;;;;5068692;28;20357;-64
2022/04/11 02:19:22;;;;;;;9.77;4.38;;;7.80;63.00;;;;;;5060301;28;20505;-63
2022/04/11 02:21:48;;;;;;;9.68;4.68;;;7.70;63.00;;;;;;5053444;28;20132;-64
2022/04/11 02:24:14;;;;;;;9.07;4.55;;;7.70;63.00;;;;;;5059191;28;20065;-64
2022/04/11 02:26:39;;;;;;;10.88;4.68;;;7.70;63.00;;;;;;5054159;28;20361;-64
2022/04/11 02:29:05;;;;;;;7.97;4.28;;;7.70;63.10;;;;;;5053494;28;20087;-64
2022/04/11 02:31:31;;;;;;;8.48;4.18;;;7.70;63.20;;;;;;5055790;28;20049;-64
2022/04/11 02:33:57;;;;;;;11.95;4.90;;;7.60;63.20;;;;;;5056872;28;20055;-64
2022/04/11 02:36:23;;;;;;;9.63;4.63;;;7.70;63.30;;;;;;5055995;28;20029;-63
2022/04/11 02:38:48;;;;;;;9.68;5.00;;;7.60;63.30;;;;;;5042297;28;20457;-64
2022/04/11 02:41:14;;;;;;;10.02;4.82;;;7.60;63.40;;;;;;5045170;28;20064;-63
2022/04/11 02:43:48;;;;;;;10.40;4.55;;;7.60;63.40;;;;;;5036778;28;20025;-64
2022/04/11 02:46:15;;;;;;;10.73;4.72;;;7.60;63.60;;;;;;5043386;28;20025;-63
2022/04/11 02:48:41;;;;;;;9.07;4.85;;;7.60;63.60;;;;;;5040879;28;20029;-63
2022/04/11 02:51:16;;;;;;;8.77;4.43;;;7.50;63.60;;;;;;5051967;28;20033;-63
2022/04/11 02:53:48;;;;;;;8.75;4.65;;;7.50;63.70;;;;;;5035672;28;20041;-64
2022/04/11 02:56:14;;;;;;;8.55;4.55;;;7.50;63.80;;;;;;5039836;28;20061;-63
2022/04/11 02:58:40;;;;;;;8.93;4.65;;;7.50;63.80;;;;;;5024017;28;20052;-64
2022/04/11 03:01:05;;;;;;;11.77;5.45;;;7.50;63.70;;;;;;5040097;28;20037;-63
2022/04/11 03:03:32;;;;;;;10.70;4.75;;;7.50;63.60;;;;;;5039735;28;20124;-63
2022/04/11 03:05:58;;;;;;;9.45;4.55;;;7.50;63.60;;;;;;5021627;28;20100;-63
2022/04/11 03:08:24;;;;;;;9.93;5.30;;;7.50;64.20;;;;;;5039628;28;20033;-63
2022/04/11 03:10:50;;;;;;;10.43;5.15;;;7.50;63.60;;;;;;5046571;28;20377;-64
2022/04/11 03:13:16;;;;;;;11.18;5.18;;;7.50;63.70;;;;;;5043274;28;20029;-64
2022/04/11 03:15:41;;;;;;;11.85;4.85;;;7.50;63.90;;;;;;5040067;28;20029;-64
2022/04/11 03:18:07;;;;;;;9.45;5.28;;;7.40;63.80;;;;;;5039357;28;20049;-63
2022/04/11 03:20:36;;;;;;;10.00;4.80;;;7.40;63.90;;;;;;5036937;28;20040;-64
2022/04/11 03:23:02;;;;;;;10.00;5.03;;;7.40;64.00;;;;;;5035100;28;20021;-64
2022/04/11 03:25:31;;;;;;;9.15;4.90;;;7.40;64.00;;;;;;5042244;28;20021;-63
2022/04/11 03:27:58;;;;;;;8.98;4.45;;;7.40;64.10;;;;;;5045759;28;20040;-64
2022/04/11 03:30:24;;;;;;;10.65;5.25;;;7.30;64.00;;;;;;5050887;28;20025;-64
2022/04/11 03:32:49;;;;;;;10.48;5.28;;;7.30;64.00;;;;;;5040743;28;20045;-64
2022/04/11 03:35:18;;;;;;;10.25;5.47;;;7.30;64.00;;;;;;5033948;28;20035;-63
2022/04/11 03:37:44;;;;;;;10.52;5.55;;;7.30;64.70;;;;;;5038393;28;20025;-63
2022/04/11 03:40:17;;;;;;;10.20;5.05;;;7.30;64.00;;;;;;5069555;28;20526;-64
2022/04/11 03:42:43;;;;;;;11.27;5.15;;;7.30;64.10;;;;;;5054835;28;20079;-64
2022/04/11 03:45:11;;;;;;;11.32;5.60;;;7.30;64.10;;;;;;5061001;28;20468;-63
2022/04/11 03:47:38;;;;;;;11.35;5.78;;;7.30;64.20;;;;;;5056743;28;20025;-63
2022/04/11 03:50:04;;;;;;;12.27;5.55;;;7.20;64.10;;;;;;5059724;28;20033;-63
2022/04/11 03:52:34;;;;;;;12.25;5.30;;;7.20;64.20;;;;;;5002824;28;20094;-64
2022/04/11 03:55:04;;;;;;;10.40;5.13;;;7.20;64.30;;;;;;5050171;28;20036;-63
2022/04/11 03:57:30;;;;;;;8.85;5.15;;;7.10;64.30;;;;;;5037505;28;20046;-64
2022/04/11 03:59:59;;;;;;;13.60;5.80;;;7.10;64.40;;;;;;5037211;28;20417;-64
2022/04/11 04:02:24;;;;;;;9.48;5.57;;;7.10;64.40;;;;;;5034860;28;20481;-64
2022/04/11 04:04:50;;;;;;;11.35;6.07;;;7.10;64.40;;;;;;5034048;28;20021;-64
2022/04/11 04:07:17;;;;;;;9.07;5.78;;;7.00;64.40;;;;;;5035608;28;20124;-63
2022/04/11 04:09:45;;;;;;;10.35;5.45;;;7.00;64.50;;;;;;5040335;28;20021;-63
2022/04/11 04:12:10;;;;;;;10.82;5.63;;;7.00;64.50;;;;;;5054764;28;20021;-63
2022/04/11 04:14:42;;;;;;;12.27;6.35;;;7.00;64.50;;;;;;5055213;28;20033;-63
2022/04/11 04:17:09;;;;;;;10.18;6.25;;;7.00;64.50;;;;;;5045187;28;20024;-65
2022/04/11 04:19:44;;;;;;;9.82;5.45;;;7.00;64.60;;;;;;5062330;28;20354;-63
2022/04/11 04:22:14;;;;;;;11.35;5.80;;;7.00;64.60;;;;;;5054648;28;20119;-64
2022/04/11 04:24:40;;;;;;;9.23;5.40;;;6.90;64.60;;;;;;5057655;28;20175;-64
2022/04/11 04:27:08;;;;;;;10.13;5.93;;;7.00;64.60;;;;;;5070151;28;20113;-64
2022/04/11 04:29:35;;;;;;;10.25;5.95;;;6.90;64.60;;;;;;5064008;28;20520;-64
2022/04/11 04:32:02;;;;;;;8.98;4.93;;;6.90;64.70;;;;;;5019164;28;1035104;-63
2022/04/11 04:34:31;;;;;;;11.10;6.25;;;6.90;64.70;;;;;;5062529;28;20028;-64
2022/04/11 04:36:58;;;;;;;9.52;5.65;;;6.90;64.80;;;;;;5072892;28;20029;-64
2022/04/11 04:39:25;;;;;;;11.50;6.35;;;6.90;64.80;;;;;;5054963;28;20076;-64
2022/04/11 04:41:52;;;;;;;10.52;5.93;;;6.90;64.90;;;;;;5055542;28;20075;-64
2022/04/11 04:44:19;;;;;;;9.32;5.82;;;6.90;64.90;;;;;;5059822;28;20106;-63
2022/04/11 04:46:49;;;;;;;10.27;5.97;;;6.90;64.90;;;;;;5075478;28;20464;-64
2022/04/11 04:49:25;;;;;;;9.90;5.70;;;6.90;64.90;;;;;;5065762;28;20475;-63
2022/04/11 04:51:53;;;;;;;10.93;6.10;;;6.90;64.90;;;;;;5055011;28;20029;-63
2022/04/11 04:54:19;;;;;;;10.60;5.53;;;6.90;64.90;;;;;;5058018;28;20020;-63
2022/04/11 04:56:49;;;;;;;11.48;5.90;;;6.90;64.90;;;;;;5076256;28;20452;-63
2022/04/11 04:59:19;;;;;;;11.32;5.93;;;6.90;64.90;;;;;;5051866;28;20044;-63
2022/04/11 05:01:45;;;;;;;11.05;5.30;;;6.90;64.80;;;;;;5054978;28;20029;-63
2022/04/11 05:04:12;;;;;;;11.13;6.20;;;7.00;64.90;;;;;;5038205;28;20039;-63
2022/04/11 05:06:37;;;;;;;11.32;6.63;;;6.90;64.90;;;;;;5055050;28;20107;-63
2022/04/11 05:09:06;;;;;;;10.88;6.40;;;6.90;65.00;;;;;;5038155;28;20049;-63
2022/04/11 05:11:32;;;;;;;11.35;6.57;;;7.00;65.10;;;;;;5074806;28;20067;-63
2022/04/11 05:13:58;;;;;;;10.60;6.65;;;7.00;65.00;;;;;;5074679;28;20028;-63
2022/04/11 05:16:27;;;;;;;11.32;5.97;;;6.90;65.00;;;;;;5055953;28;20032;-63
2022/04/11 05:18:54;;;;;;;12.07;7.00;;;7.00;65.10;;;;;;5060692;28;20078;-63
2022/04/11 05:21:19;;;;;;;11.80;5.93;;;7.00;65.10;;;;;;5057356;28;20445;-64
2022/04/11 05:23:45;;;;;;;14.07;7.45;;;7.00;65.10;;;;;;5054875;28;20028;-63
2022/04/11 05:26:11;;;;;;;11.27;6.47;;;7.00;65.00;;;;;;5037344;28;20324;-63
2022/04/11 05:28:37;;;;;;;13.20;6.88;;;7.00;65.00;;;;;;5055669;28;20021;-63
2022/04/11 05:31:03;;;;;;;11.75;6.53;;;7.00;65.00;;;;;;5064049;28;20039;-63
2022/04/11 05:33:34;;;;;;;11.53;6.90;;;7.10;65.00;;;;;;5054538;28;20047;-63
2022/04/11 05:36:02;;;;;;;12.60;7.30;;;7.10;64.90;;;;;;5054179;28;20060;-64
2022/04/11 05:38:28;;;;;;;17.77;7.10;;;7.20;64.90;;;;;;5057115;28;20060;-64
2022/04/11 05:40:56;;;;;;;12.05;7.53;;;7.20;64.70;;;;;;5063628;28;20037;-64
2022/04/11 05:43:30;;;;;;;12.82;7.45;;;7.20;64.60;;;;;;5034200;28;20026;-64
2022/04/11 05:45:56;;;;;;;11.80;6.93;;;7.30;64.50;;;;;;5053748;28;20021;-63
2022/04/11 05:48:22;;;;;;;11.98;7.50;;;7.30;64.40;;;;;;5059181;28;20025;-63
2022/04/11 05:50:47;;;;;;;11.35;6.35;;;7.40;64.30;;;;;;5062106;28;20025;-63
2022/04/11 05:53:13;;;;;;;12.75;6.60;;;7.40;64.10;;;;;;5053904;28;20044;-63
2022/04/11 05:55:39;;;;;;;11.70;6.20;;;7.50;64.10;;;;;;5053757;28;20025;-65
2022/04/11 05:58:05;;;;;;;10.55;6.72;;;7.50;64.10;;;;;;5053917;28;20545;-64
2022/04/11 06:00:31;;;;;;;11.70;6.60;;;7.50;63.80;;;;;;5054460;28;20061;-64
2022/04/11 06:02:56;;;;;;;9.77;6.25;;;7.60;63.70;;;;;;5053737;28;20102;-64
2022/04/11 06:05:22;;;;;;;10.88;6.57;;;7.60;63.50;;;;;;5055180;28;20025;-64
2022/04/11 06:07:48;;;;;;;10.98;6.72;;;7.70;63.50;;;;;;5054512;28;20032;-64
2022/04/11 06:10:14;;;;;;;12.05;7.03;;;7.70;63.20;;;;;;5033860;28;20446;-64
2022/04/11 06:12:41;;;;;;;11.38;6.70;;;7.80;63.00;;;;;;5051534;28;20040;-63
2022/04/11 06:15:07;;;;;;;10.75;6.80;;;7.80;62.90;;;;;;5053756;28;20017;-63
2022/04/11 06:17:34;;;;;;;10.88;6.65;;;7.90;62.70;;;;;;5053654;28;20033;-63
2022/04/11 06:20:01;;;;;;;10.98;6.30;;;8.00;62.50;;;;;;5053751;28;20414;-63
2022/04/11 06:22:28;;;;;;;12.10;7.05;;;8.30;61.90;;;;;;5053049;28;20029;-63
2022/04/11 06:25:01;;;;;;;12.50;7.25;;;8.50;61.10;;;;;;5036625;28;20025;-64
2022/04/11 06:27:32;;;;;;;10.88;6.45;;;8.80;60.40;;;;;;5053598;28;20025;-64
2022/04/11 06:29:58;;;;;;;11.20;6.93;;;9.10;59.70;;;;;;5053259;28;20047;-63
2022/04/11 06:32:29;;;;;;;9.77;6.70;;;9.50;59.10;;;;;;5053226;28;20045;-63
2022/04/11 06:34:56;;;;;;;11.25;6.80;;;9.90;58.50;;;;;;5051442;28;20030;-63
2022/04/11 06:37:23;;;;;;;11.38;6.80;;;9.90;58.40;;;;;;5036477;28;20112;-63
2022/04/11 06:39:51;;;;;;;11.30;6.25;;;9.90;58.30;;;;;;5053564;28;20025;-63
2022/04/11 06:42:16;;;;;;;37.67;9.50;;;9.90;58.30;;;;;;5032211;28;20029;-63
2022/04/11 06:44:46;;;;;;;12.23;7.10;;;9.80;58.30;;;;;;5046957;28;20028;-64
2022/04/11 06:47:13;;;;;;;10.00;6.57;;;10.00;58.20;;;;;;5052935;28;20021;-64
2022/04/11 06:49:39;;;;;;;11.52;6.72;;;10.20;57.80;;;;;;5041958;28;20124;-64
2022/04/11 06:52:06;;;;;;;11.18;6.38;;;10.40;57.40;;;;;;5051303;28;20087;-62
2022/04/11 06:54:32;;;;;;;11.55;6.50;;;10.60;56.90;;;;;;5048870;28;20025;-62
2022/04/11 06:56:58;;;;;;;9.80;6.95;;;10.80;56.40;;;;;;5042436;28;20033;-63
2022/04/11 06:59:24;;;;;;;10.43;6.78;;;11.00;56.00;;;;;;5040489;28;20041;-63
2022/04/11 07:01:52;;;;;;;10.32;6.80;;;11.10;55.60;;;;;;5052723;28;20081;-63
2022/04/11 07:04:18;;;;;;;12.48;6.60;;;11.30;55.30;;;;;;5052049;28;20052;-62
2022/04/11 07:06:43;;;;;;;10.52;6.20;;;11.50;55.10;;;;;;5052406;28;20041;-63
2022/04/11 07:09:09;;;;;;;10.50;6.60;;;11.70;54.60;;;;;;5047799;28;20030;-65
2022/04/11 07:11:34;;;;;;;11.90;7.03;;;11.80;54.10;;;;;;5052186;28;20044;-63
2022/04/11 07:14:00;;;;;;;10.23;6.70;;;12.00;53.70;;;;;;5052390;28;20108;-63
2022/04/11 07:16:26;;;;;;;11.32;7.28;;;12.20;53.40;;;;;;5052054;28;20017;-63
2022/04/11 07:18:51;;;;;;;9.90;6.35;;;12.40;53.10;;;;;;5053420;28;20391;-63
2022/04/11 07:21:17;;;;;;;10.32;6.70;;;12.50;52.70;;;;;;5053336;28;20083;-62
2022/04/11 07:23:43;;;;;;;12.40;7.10;;;12.70;52.30;;;;;;5055465;28;20408;-63
2022/04/11 07:26:09;;;;;;;10.05;6.40;;;12.80;52.00;;;;;;5055948;28;20103;-62
2022/04/11 07:28:34;;;;;;;10.73;6.55;;;12.90;51.70;;;;;;5056220;28;20021;-63
2022/04/11 07:31:00;;;;;;;14.75;7.10;;;12.90;51.50;;;;;;5055770;28;20021;-62
2022/04/11 07:33:25;;;;;;;10.65;6.38;;;13.10;51.30;;;;;;5057570;28;20106;-62
2022/04/11 07:35:53;;;;;;;11.88;6.10;;;13.20;51.00;;;;;;5058015;28;20028;-62
2022/04/11 07:38:19;;;;;;;10.07;6.35;;;13.40;50.70;;;;;;5057595;28;20060;-62
2022/04/11 07:40:45;;;;;;;11.80;6.90;;;13.50;50.30;;;;;;5056804;28;20458;-62
2022/04/11 07:43:11;;;;;;;12.57;6.45;;;13.60;50.00;;;;;;5056197;28;20025;-63
2022/04/11 07:45:36;;;;;;;10.18;6.40;;;13.80;49.70;;;;;;5055840;28;20043;-63
2022/04/11 07:48:02;;;;;;;10.63;6.38;;;14.00;49.50;;;;;;5057477;28;20053;-63
2022/04/11 07:50:28;;;;;;;9.38;6.32;;;14.00;49.20;;;;;;5068989;28;20032;-62
2022/04/11 07:52:53;;;;;;;11.60;7.00;;;14.20;49.00;;;;;;5071767;28;20040;-63
2022/04/11 07:55:19;;;;;;;11.57;6.82;;;14.40;48.70;;;;;;5060421;28;20056;-63
2022/04/11 07:57:44;;;;;;;10.63;6.53;;;14.50;48.40;;;;;;5056321;28;20343;-63
2022/04/11 08:00:11;;;;;;;11.45;6.20;;;14.60;48.10;;;;;;5056212;28;20028;-63
2022/04/11 08:02:39;;;;;;;12.60;6.72;;;14.70;47.90;;;;;;5057414;28;20099;-63
2022/04/11 08:05:06;;;;;;;11.13;6.72;;;14.80;47.70;;;;;;5056833;28;20462;-62
2022/04/11 08:07:35;;;;;;;11.90;6.75;;;15.00;47.60;;;;;;5056884;28;20052;-62
2022/04/11 08:10:06;;;;;;;12.38;6.35;;;15.10;47.40;;;;;;5056302;28;20354;-63
2022/04/11 08:12:32;;;;;;;10.73;6.55;;;15.20;47.20;;;;;;5056736;28;20409;-63
2022/04/11 08:14:57;;;;;;;11.70;6.10;;;15.20;47.00;;;;;;5056375;28;20047;-62
2022/04/11 08:17:23;;;;;;;13.07;6.20;;;15.30;46.90;;;;;;5056195;28;20454;-62
2022/04/11 08:19:49;;;;;;;11.45;6.07;;;15.40;46.70;;;;;;5056766;28;20033;-62
2022/04/11 08:22:15;;;;;;;10.95;6.35;;;15.50;46.60;;;;;;5056235;28;20487;-63
2022/04/11 08:24:41;;;;;;;9.02;5.22;;;15.60;46.60;;;;;;5056660;28;20029;-62
2022/04/11 08:27:06;;;;;;;9.80;5.35;;;15.60;46.50;;;;;;5056157;28;20040;-62
2022/04/11 08:29:32;;;;;;;8.60;5.55;;;15.70;46.30;;;;;;5056383;28;20065;-63
2022/04/11 08:31:57;;;;;;;7.97;4.97;;;15.90;46.20;;;;;;5055105;28;20055;-62
2022/04/11 08:34:23;;;;;;;10.45;5.45;;;15.90;46.10;;;;;;5055892;28;20041;-62
2022/04/11 08:36:49;;;;;;;9.75;5.60;;;16.10;46.00;;;;;;5055127;28;20063;-63
2022/04/11 08:39:15;;;;;;;7.75;4.75;;;16.10;46.00;;;;;;5055841;28;20032;-62
2022/04/11 08:41:42;;;;;;;10.43;5.32;;;16.20;45.90;;;;;;5055808;28;20079;-62
2022/04/11 08:44:07;;;;;;;12.25;6.88;;;16.30;45.80;;;;;;5055036;28;20025;-63
2022/04/11 08:46:34;;;;;;;9.48;5.25;;;16.40;45.80;;;;;;5056282;28;20108;-62
2022/04/11 08:49:02;;;;;;;9.70;4.72;;;16.40;45.70;;;;;;5055622;28;20031;-62
2022/04/11 08:51:31;;;;;;;8.20;4.88;;;16.50;45.60;;;;;;5055957;28;20426;-62
2022/04/11 08:53:59;;;;;;;9.88;4.50;;;16.50;45.50;;;;;;5055324;28;20082;-62
2022/04/11 08:56:25;;;;;;;8.80;4.25;;;16.60;45.20;;;;;;5055792;28;20404;-63
2022/04/11 08:58:50;;;;;;;10.00;4.30;;;16.70;45.10;;;;;;5055652;28;20098;-63
2022/04/11 09:01:17;;;;;;;8.05;3.95;;;16.80;44.80;;;;;;5055561;28;20469;-63
2022/04/11 09:03:43;;;;;;;7.63;3.75;;;16.90;44.50;;;;;;5055562;28;20111;-63
2022/04/11 09:06:13;;;;;;;7.78;3.72;;;16.90;44.20;;;;;;5055930;28;20025;-63
2022/04/11 09:08:49;;;;;;;8.15;3.63;;;17.00;43.90;;;;;;5055539;28;20021;-62
2022/04/11 09:11:36;;;;;;;8.02;3.05;;;17.10;43.60;;;;;;5054583;28;20029;-62
2022/04/11 09:14:08;;;;;;;7.38;3.80;;;17.20;43.10;;;;;;5055026;28;20040;-62
2022/04/11 09:16:50;;;;;;;6.53;2.85;;;17.30;43.00;;;;;;5056017;28;20040;-63
2022/04/11 09:19:24;;;;;;;6.78;3.53;;;17.40;42.70;;;;;;5055361;28;20460;-62
2022/04/11 09:21:54;;;;;;;5.90;3.17;;;17.40;42.60;;;;;;5055314;28;20106;-62
2022/04/11 09:24:25;;;;;;;9.80;3.75;;;17.60;42.60;;;;;;5055265;28;20025;-63
2022/04/11 09:26:59;;;;;;;7.60;3.42;;;17.80;42.50;;;;;;5055616;28;20056;-63
2022/04/11 09:29:27;;;;;;;6.55;2.97;;;17.80;42.20;;;;;;5055203;28;20454;-63
2022/04/11 09:32:01;;;;;;;6.70;2.97;;;17.90;42.10;;;;;;5054010;28;20080;-62
2022/04/11 09:34:27;;;;;;;5.28;2.53;;;17.90;41.90;;;;;;5055824;28;20072;-63
2022/04/11 09:36:54;;;;;;;7.57;3.53;;;18.00;41.80;;;;;;5054101;28;20055;-62
2022/04/11 09:39:22;;;;;;;6.35;2.75;;;17.90;41.80;;;;;;5055302;28;20032;-65
2022/04/11 09:41:49;;;;;;;6.30;2.80;;;18.00;41.70;;;;;;5053587;28;20029;-62
2022/04/11 09:44:29;;;;;;;6.38;2.67;;;18.00;41.50;;;;;;5053032;28;20425;-62
2022/04/11 09:46:59;;;;;;;7.82;2.97;;;18.20;41.30;;;;;;5054229;28;20025;-62
2022/04/11 09:49:25;;;;;;;5.68;2.45;;;18.30;41.10;;;;;;5054458;28;20031;-62
2022/04/11 09:52:12;;;;;;;4.60;2.40;;;18.30;41.10;;;;;;5054855;28;20029;-62
2022/04/11 09:54:46;;;;;;;4.65;2.13;;;18.40;40.70;;;;;;5047787;28;20082;-62
2022/04/11 09:57:13;;;;;;;5.70;2.47;;;18.30;40.40;;;;;;5055317;28;20104;-63
2022/04/11 09:59:39;;;;;;;7.57;2.50;;;18.30;40.50;;;;;;5054917;28;20438;-62
2022/04/11 10:02:06;;;;;;;6.10;2.45;;;18.30;40.40;;;;;;5053922;28;20082;-63
2022/04/11 10:04:33;;;;;;;6.28;2.72;;;18.30;40.90;;;;;;5055639;28;20017;-63
2022/04/11 10:06:59;;;;;;;6.65;2.92;;;18.30;40.10;;;;;;5038104;28;20029;-63
2022/04/11 10:09:24;;;;;;;7.10;2.75;;;18.30;39.90;;;;;;5055057;28;20033;-63
2022/04/11 10:11:52;;;;;;;6.32;2.30;;;18.30;40.00;;;;;;5053336;28;20472;-63
2022/04/11 10:14:28;;;;;;;8.13;2.65;;;18.50;40.20;;;;;;5060364;28;20036;-62
2022/04/11 10:16:56;;;;;;;6.28;2.22;;;18.60;40.10;;;;;;5057072;28;20437;-63
2022/04/11 10:19:25;;;;;;;6.65;2.13;;;18.80;39.80;;;;;;5034898;28;20040;-63
2022/04/11 10:21:54;;;;;;;7.78;2.40;;;18.80;39.20;;;;;;5054296;28;20452;-62
2022/04/11 10:24:38;;;;;;;6.82;2.47;;;18.80;39.10;;;;;;5059005;28;20408;-62
2022/04/11 10:27:17;;;;;;;5.80;2.20;;;18.70;38.90;;;;;;5052317;28;20036;-62
2022/04/11 10:29:43;;;;;;;7.28;2.72;;;18.70;39.00;;;;;;5059041;28;20055;-62
2022/04/11 10:32:14;;;;;;;7.20;2.40;;;18.70;39.10;;;;;;5072824;28;20084;-62
2022/04/11 10:35:04;;;;;;;5.20;2.30;;;18.60;39.10;;;;;;5065217;28;20037;-62
2022/04/11 10:37:38;;;;;;;6.03;2.43;;;18.60;39.10;;;;;;5054155;28;20040;-63
2022/04/11 10:40:16;;;;;;;7.53;3.00;;;18.70;39.80;;;;;;5062383;28;20040;-63
2022/04/11 10:43:00;;;;;;;6.32;2.38;;;18.80;39.20;;;;;;5073145;28;20454;-63
2022/04/11 10:45:30;;;;;;;5.55;2.50;;;18.80;39.10;;;;;;5056063;28;20033;-62
2022/04/11 10:47:55;;;;;;;6.97;2.55;;;18.90;39.10;;;;;;5059971;28;20097;-63
2022/04/11 10:50:23;;;;;;;8.00;2.30;;;19.00;38.90;;;;;;5056221;28;20033;-62
2022/04/11 10:52:54;;;;;;;6.93;2.58;;;19.00;38.30;;;;;;5052773;28;20465;-63
2022/04/11 10:55:25;;;;;;;;;;;18.90;37.70;;;;;;5053947;28;20037;-63
2022/04/11 10:57:51;;;;;;;6.93;2.55;;;18.80;38.30;;;;;;5054674;28;19919;-62
2022/04/11 11:00:27;;;;;;;7.03;3.20;;;18.70;38.30;;;;;;5066042;28;20039;-62
2022/04/11 11:02:52;;;;;;;6.28;3.05;;;18.70;37.90;;;;;;5077908;28;20029;-63
2022/04/11 11:05:38;;;;;;;6.22;2.70;;;18.70;37.90;;;;;;5067998;28;20472;-62
2022/04/11 11:08:10;;;;;;;7.88;3.08;;;18.80;37.70;;;;;;5056823;28;20033;-62
2022/04/11 11:10:54;;;;;;;7.15;3.08;;;18.70;37.40;;;;;;5067360;28;20039;-62
2022/04/11 11:13:38;;;;;;;6.28;3.03;;;18.60;37.40;;;;;;5070580;28;20036;-63
2022/04/11 11:16:11;;;;;;;9.60;3.85;;;18.50;37.60;;;;;;5068441;28;20053;-62
2022/04/11 11:18:49;;;;;;;8.05;3.03;;;18.50;37.70;;;;;;5058182;28;20072;-63
2022/04/11 11:21:19;;;;;;;6.80;2.95;;;18.60;37.40;;;;;;5058728;28;20358;-63
2022/04/11 11:24:08;;;;;;;6.97;3.10;;;18.70;37.20;;;;;;5057787;28;20025;-63
2022/04/11 11:26:45;;;;;;;6.55;3.10;;;18.60;37.20;;;;;;5067790;28;20036;-62
2022/04/11 11:29:31;;;;;;;7.15;3.42;;;18.60;37.60;;;;;;5057756;28;20025;-62
2022/04/11 11:32:00;;;;;;;7.82;3.28;;;18.60;37.80;;;;;;5076554;28;20056;-62
2022/04/11 11:34:29;;;;;;;7.68;3.35;;;18.60;38.10;;;;;;5075636;28;20056;-62
2022/04/11 11:37:06;;;;;;;7.25;4.18;;;18.60;38.40;;;;;;5059635;28;20338;-63
2022/04/11 11:39:35;;;;;;;7.50;3.83;;;18.70;38.50;;;;;;5057468;28;20130;-63
2022/04/11 11:42:04;;;;;;;7.22;3.53;;;18.60;38.70;;;;;;5057020;28;20362;-62
2022/04/11 11:44:31;;;;;;;7.70;3.80;;;18.60;39.00;;;;;;5061771;28;20108;-62
2022/04/11 11:47:02;;;;;;;7.30;3.50;;;18.60;39.00;;;;;;5061645;28;20024;-62
2022/04/11 11:49:28;;;;;;;;;;;18.60;39.00;;;;;;5073861;28;20067;-63
2022/04/11 11:51:54;;;;;;;6.78;2.95;;;18.60;39.20;;;;;;5058501;28;20349;-63
2022/04/11 11:54:36;;;;;;;10.38;3.63;;;18.60;39.00;;;;;;5059379;28;20036;-63
2022/04/11 11:57:11;;;;;;;8.60;3.40;;;18.50;38.60;;;;;;5067373;28;20040;-62
2022/04/11 11:59:46;;;;;;;7.53;3.40;;;18.40;38.60;;;;;;5072486;28;20032;-63
2022/04/11 12:04:57;;;;;;;7.68;3.55;;;18.30;38.30;;;;;;5064068;28;20373;-63
2022/04/11 12:07:23;;;;;;;8.10;3.17;;;18.30;38.30;;;;;;5057725;28;20033;-64
2022/04/11 12:09:49;;;;;;;7.72;3.25;;;18.20;38.30;;;;;;5056740;28;20037;-64
2022/04/11 12:12:19;;;;;;;10.15;4.47;;;18.20;38.10;;;;;;5058120;28;20385;-64
2022/04/11 12:15:06;;;;;;;7.60;3.47;;;18.20;37.90;;;;;;5056635;28;20471;-63
2022/04/11 12:17:35;;;;;;;7.95;3.50;;;18.10;37.70;;;;;;5064808;28;20039;-63
2022/04/11 12:20:30;;;;;;;8.00;3.78;;;18.00;37.80;;;;;;5056775;28;20025;-62
2022/04/11 12:23:15;;;;;;;6.57;3.03;;;18.00;38.00;;;;;;5036331;28;20069;-63
2022/04/11 12:25:47;;;;;;;9.55;3.60;;;18.10;37.80;;;;;;5059523;28;20031;-63
2022/04/11 12:28:23;;;;;;;13.10;3.65;;;18.10;37.70;;;;;;5076514;28;20029;-63
2022/04/11 12:31:06;;;;;;;8.98;3.28;;;18.00;37.40;;;;;;5068815;28;20025;-63
2022/04/11 12:33:44;;;;;;;9.93;3.70;;;17.90;37.20;;;;;;5055541;28;20365;-63
2022/04/11 12:36:12;;;;;;;7.93;3.50;;;17.80;37.00;;;;;;5073854;28;20040;-63
2022/04/11 12:38:41;;;;;;;7.43;3.30;;;17.70;37.30;;;;;;5074225;28;20052;-63
2022/04/11 12:41:09;;;;;;;7.28;3.13;;;17.70;37.40;;;;;;5061022;28;20115;-62
2022/04/11 12:44:07;;;;;;;6.43;3.20;;;17.70;37.30;;;;;;5076535;28;20419;-63
2022/04/11 12:46:36;;;;;;;6.57;3.00;;;17.70;37.00;;;;;;5064626;28;20037;-62
2022/04/11 12:49:03;;;;;;;8.02;3.28;;;17.60;37.10;;;;;;5056034;28;20033;-62
2022/04/11 12:51:28;;;;;;;6.78;2.83;;;17.60;37.00;;;;;;5062786;28;20425;-62
2022/04/11 12:54:20;;;;;;;7.75;3.28;;;17.60;37.10;;;;;;5068499;28;20086;-62
2022/04/11 12:56:49;;;;;;;6.68;2.60;;;17.50;36.90;;;;;;5057296;28;20045;-63
2022/04/11 12:59:27;;;;;;;7.63;2.97;;;17.50;36.90;;;;;;5056202;28;20292;-63